createdAt,value
2019-02-17T00:01:01.574Z,19.37
2019-02-17T00:03:31.856Z,21.53
2019-02-17T00:06:02.129Z,19.50
2019-02-17T00:08:32.475Z,21.03
2019-02-17T00:11:02.784Z,24.30
2019-02-17T00:13:33.098Z,22.67
2019-02-17T00:16:04.612Z,22.47
2019-02-17T00:18:34.880Z,20.83
2019-02-17T00:21:05.172Z,20.63
2019-02-17T00:23:35.461Z,20.20
2019-02-17T00:26:05.781Z,19.67
2019-02-17T00:28:36.055Z,19.70
2019-02-17T00:31:06.313Z,20.23
2019-02-17T00:33:36.615Z,20.70
2019-02-17T00:36:06.873Z,19.57
2019-02-17T00:38:37.154Z,19.27
2019-02-17T00:41:07.462Z,19.63
2019-02-17T00:43:37.749Z,18.13
2019-02-17T00:46:08.027Z,17.73
2019-02-17T00:48:38.319Z,18.37
2019-02-17T00:51:08.588Z,18.07
2019-02-17T00:53:38.898Z,18.30
2019-02-17T00:56:10.073Z,18.47
2019-02-17T00:58:40.516Z,16.90
2019-02-17T01:01:10.783Z,19.20
2019-02-17T01:03:41.056Z,15.87
2019-02-17T01:06:11.317Z,16.23
2019-02-17T01:08:41.667Z,17.23
2019-02-17T01:11:11.952Z,16.33
2019-02-17T01:13:42.317Z,17.83
2019-02-17T01:16:12.581Z,18.50
2019-02-17T01:18:42.891Z,16.97
2019-02-17T01:21:13.179Z,17.03
2019-02-17T01:23:43.622Z,16.87
2019-02-17T01:26:14.027Z,16.30
2019-02-17T01:28:44.317Z,15.47
2019-02-17T01:31:14.585Z,17.90
2019-02-17T01:33:44.936Z,16.63
2019-02-17T01:36:16.734Z,17.77
2019-02-17T01:38:46.986Z,18.17
2019-02-17T01:41:17.247Z,16.53
2019-02-17T01:43:47.509Z,16.17
2019-02-17T01:46:17.783Z,16.27
2019-02-17T01:48:48.081Z,15.13
2019-02-17T01:51:18.620Z,16.10
2019-02-17T01:53:48.911Z,16.83
2019-02-17T01:56:20.118Z,15.87
2019-02-17T01:58:50.444Z,14.93
2019-02-17T02:01:20.711Z,14.07
2019-02-17T02:03:51.069Z,15.77
2019-02-17T02:06:21.347Z,15.47
2019-02-17T02:08:51.627Z,15.70
2019-02-17T02:11:21.985Z,15.53
2019-02-17T02:13:52.408Z,17.00
2019-02-17T02:16:22.735Z,15.87
2019-02-17T02:18:53.016Z,16.23
2019-02-17T02:21:23.311Z,18.40
2019-02-17T02:23:53.400Z,17.43
2019-02-17T02:26:23.670Z,15.37
2019-02-17T02:28:53.949Z,16.27
2019-02-17T02:31:25.278Z,17.10
2019-02-17T02:33:55.540Z,15.63
2019-02-17T02:36:27.182Z,16.17
2019-02-17T02:38:57.475Z,15.37
2019-02-17T02:41:34.756Z,16.20
2019-02-17T02:43:59.751Z,16.27
2019-02-17T02:46:30.047Z,16.40
2019-02-17T02:49:00.404Z,17.23
2019-02-17T02:51:30.754Z,17.60
2019-02-17T02:54:01.026Z,17.37
2019-02-17T02:56:32.158Z,18.00
2019-02-17T02:59:02.444Z,15.77
2019-02-17T03:01:32.713Z,15.37
2019-02-17T03:04:03.063Z,16.60
2019-02-17T03:06:50.120Z,17.43
2019-02-17T03:09:20.319Z,16.70
2019-02-17T03:11:50.585Z,17.33
2019-02-17T03:14:20.860Z,17.23
2019-02-17T03:16:51.130Z,22.87
2019-02-17T03:19:22.548Z,21.60
2019-02-17T03:21:52.838Z,21.37
2019-02-17T03:24:25.949Z,19.57
2019-02-17T03:26:56.238Z,20.27
2019-02-17T03:29:27.539Z,18.33
2019-02-17T03:31:57.797Z,19.33
2019-02-17T03:34:29.122Z,18.87
2019-02-17T03:36:59.421Z,19.03
2019-02-17T03:39:30.838Z,17.23
2019-02-17T03:42:01.114Z,17.80
2019-02-17T03:44:31.377Z,19.03
2019-02-17T03:47:01.644Z,18.97
2019-02-17T03:49:31.902Z,18.10
2019-02-17T03:52:02.206Z,18.50
2019-02-17T03:54:32.521Z,19.10
2019-02-17T03:57:03.568Z,19.10
2019-02-17T03:59:33.876Z,19.07
2019-02-17T04:02:04.160Z,19.27
2019-02-17T04:04:34.438Z,18.53
2019-02-17T04:07:04.785Z,17.83
2019-02-17T04:09:35.062Z,19.40
2019-02-17T04:12:05.418Z,19.80
2019-02-17T04:14:35.784Z,16.50
2019-02-17T04:17:06.062Z,16.67
2019-02-17T04:19:36.320Z,19.40
2019-02-17T04:22:06.603Z,18.30
2019-02-17T04:24:38.021Z,16.40
2019-02-17T04:27:08.281Z,15.70
2019-02-17T04:29:38.565Z,15.17
2019-02-17T04:32:09.001Z,15.07
2019-02-17T04:34:39.251Z,15.43
2019-02-17T04:37:09.627Z,14.87
2019-02-17T04:39:39.913Z,16.20
2019-02-17T04:42:10.159Z,15.57
2019-02-17T04:44:40.415Z,16.20
2019-02-17T04:47:10.693Z,15.87
2019-02-17T04:49:41.070Z,16.30
2019-02-17T04:52:11.329Z,15.03
2019-02-17T04:54:41.598Z,14.93
2019-02-17T04:57:12.793Z,15.57
2019-02-17T04:59:43.039Z,15.30
2019-02-17T05:02:13.305Z,15.67
2019-02-17T05:04:43.569Z,15.37
2019-02-17T05:07:13.840Z,14.27
2019-02-17T05:09:44.106Z,15.60
2019-02-17T05:12:14.398Z,14.70
2019-02-17T05:14:44.677Z,16.10
2019-02-17T05:17:14.971Z,16.37
2019-02-17T05:19:45.287Z,16.00
2019-02-17T05:22:15.525Z,15.47
2019-02-17T05:24:45.776Z,16.00
2019-02-17T05:27:16.068Z,16.27
2019-02-17T05:29:46.356Z,15.27
2019-02-17T05:32:16.746Z,15.23
2019-02-17T05:34:47.007Z,16.83
2019-02-17T05:37:17.327Z,14.53
2019-02-17T05:39:47.582Z,16.00
2019-02-17T05:42:17.876Z,14.93
2019-02-17T05:44:48.151Z,15.77
2019-02-17T05:47:18.423Z,15.33
2019-02-17T05:49:49.066Z,14.93
2019-02-17T05:52:20.113Z,15.27
2019-02-17T05:54:50.748Z,14.13
2019-02-17T05:57:22.470Z,15.37
2019-02-17T05:59:52.727Z,16.53
2019-02-17T06:02:23.010Z,13.23
2019-02-17T06:04:53.351Z,13.93
2019-02-17T06:07:23.637Z,15.50
2019-02-17T06:09:53.900Z,14.47
2019-02-17T06:12:24.280Z,15.03
2019-02-17T06:14:54.575Z,14.83
2019-02-17T06:17:24.868Z,15.70
2019-02-17T06:19:55.150Z,15.30
2019-02-17T06:22:25.457Z,14.13
2019-02-17T06:24:55.823Z,16.43
2019-02-17T06:27:26.082Z,16.87
2019-02-17T06:29:56.343Z,17.30
2019-02-17T06:32:26.620Z,16.27
2019-02-17T06:34:56.894Z,16.73
2019-02-17T06:37:27.191Z,15.30
2019-02-17T06:39:58.428Z,16.93
2019-02-17T06:42:28.711Z,17.57
2019-02-17T06:44:59.013Z,17.03
2019-02-17T06:47:30.872Z,17.90
2019-02-17T06:50:01.216Z,17.37
2019-02-17T06:52:31.504Z,15.53
2019-02-17T06:55:06.079Z,16.83
2019-02-17T06:57:38.759Z,15.50
2019-02-17T07:00:28.007Z,15.03
2019-02-17T07:02:58.408Z,14.13
2019-02-17T07:05:30.314Z,16.60
2019-02-17T07:08:00.640Z,16.30
2019-02-17T07:10:30.885Z,16.03
2019-02-17T07:13:01.231Z,14.77
2019-02-17T07:15:31.498Z,17.63
2019-02-17T07:18:01.803Z,16.27
2019-02-17T07:20:32.056Z,15.10
2019-02-17T07:23:02.401Z,16.20
2019-02-17T07:25:32.696Z,16.13
2019-02-17T07:28:02.951Z,16.43
2019-02-17T07:30:33.218Z,15.43
2019-02-17T07:33:03.514Z,17.67
2019-02-17T07:35:33.801Z,15.53
2019-02-17T07:38:04.119Z,18.13
2019-02-17T07:40:34.404Z,17.07
2019-02-17T07:43:04.780Z,16.80
2019-02-17T07:45:35.066Z,17.10
2019-02-17T07:48:05.398Z,16.87
2019-02-17T07:50:35.778Z,16.57
2019-02-17T07:53:06.189Z,16.77
2019-02-17T07:55:36.588Z,17.33
2019-02-17T07:58:07.069Z,15.57
2019-02-17T08:00:37.357Z,16.53
2019-02-17T08:03:07.772Z,16.90
2019-02-17T08:05:38.028Z,15.10
2019-02-17T08:08:08.651Z,14.40
2019-02-17T08:10:39.241Z,14.43
2019-02-17T08:13:09.760Z,13.10
2019-02-17T08:15:40.069Z,13.80
2019-02-17T08:18:10.439Z,14.03
2019-02-17T08:20:42.392Z,13.40
2019-02-17T08:23:13.208Z,13.27
2019-02-17T08:25:45.459Z,11.73
2019-02-17T08:28:15.849Z,12.00
2019-02-17T08:30:46.166Z,13.30
2019-02-17T08:33:16.621Z,12.87
2019-02-17T08:35:47.074Z,13.07
2019-02-17T08:38:17.409Z,13.60
2019-02-17T08:40:47.697Z,13.23
2019-02-17T08:43:17.961Z,13.70
2019-02-17T08:45:48.265Z,13.67
2019-02-17T08:48:18.614Z,13.40
2019-02-17T08:50:48.933Z,14.27
2019-02-17T08:53:19.448Z,15.33
2019-02-17T08:55:50.000Z,15.07
2019-02-17T08:58:21.065Z,14.03
2019-02-17T09:00:51.646Z,13.83
2019-02-17T09:03:22.558Z,13.93
2019-02-17T09:05:52.905Z,14.77
2019-02-17T09:08:23.390Z,14.30
2019-02-17T09:10:53.702Z,15.10
2019-02-17T09:13:23.980Z,14.77
2019-02-17T09:15:54.268Z,15.30
2019-02-17T09:18:24.848Z,15.37
2019-02-17T09:20:55.248Z,15.20
2019-02-17T09:23:26.498Z,15.07
2019-02-17T09:25:56.918Z,15.47
2019-02-17T09:28:27.431Z,14.70
2019-02-17T09:30:57.720Z,14.87
2019-02-17T09:33:28.322Z,14.77
2019-02-17T09:35:58.754Z,15.33
2019-02-17T09:38:29.094Z,15.20
2019-02-17T09:40:59.504Z,16.03
2019-02-17T09:43:29.869Z,14.50
2019-02-17T09:46:00.393Z,14.43
2019-02-17T09:48:30.675Z,15.23
2019-02-17T09:51:01.037Z,14.87
2019-02-17T09:53:34.735Z,14.73
2019-02-17T09:56:07.486Z,15.23
2019-02-17T09:58:40.457Z,15.73
2019-02-17T10:01:12.215Z,15.70
2019-02-17T10:03:42.571Z,15.27
2019-02-17T10:06:12.831Z,15.93
2019-02-17T10:08:43.193Z,16.17
2019-02-17T10:11:13.550Z,15.77
2019-02-17T10:13:43.951Z,16.40
2019-02-17T10:16:16.464Z,16.47
2019-02-17T10:18:47.065Z,16.60
2019-02-17T10:21:18.247Z,16.47
2019-02-17T10:23:49.158Z,16.47
2019-02-17T10:26:19.498Z,16.70
2019-02-17T10:28:49.780Z,18.13
2019-02-17T10:31:20.293Z,18.70
2019-02-17T10:33:50.560Z,17.13
2019-02-17T10:36:21.035Z,18.83
2019-02-17T10:38:51.499Z,19.70
2019-02-17T10:41:21.868Z,19.17
2019-02-17T10:43:52.240Z,19.23
2019-02-17T10:46:23.404Z,18.87
2019-02-17T10:48:53.688Z,17.97
2019-02-17T10:51:26.525Z,19.43
2019-02-17T10:53:56.858Z,19.60
2019-02-17T10:57:02.713Z,17.53
2019-02-17T11:07:00.220Z,19.73
2019-02-17T11:09:59.800Z,19.20
2019-02-17T11:12:34.689Z,19.90
2019-02-17T11:15:08.613Z,21.23
2019-02-17T11:18:00.684Z,19.43
2019-02-17T11:20:31.224Z,20.27
2019-02-17T11:23:01.517Z,19.63
2019-02-17T11:25:34.875Z,20.20
2019-02-17T11:28:05.190Z,21.33
2019-02-17T11:30:35.455Z,21.60
2019-02-17T11:33:05.806Z,20.57
2019-02-17T11:35:36.075Z,21.50
2019-02-17T11:38:10.236Z,22.43
2019-02-17T11:49:35.855Z,21.83
2019-02-17T11:52:06.137Z,22.10
2019-02-17T11:54:36.453Z,22.07
2019-02-17T11:57:06.881Z,22.23
2019-02-17T11:59:38.021Z,22.37
2019-02-17T12:02:08.341Z,22.20
2019-02-17T12:04:38.777Z,21.73
2019-02-17T12:07:09.045Z,20.70
2019-02-17T12:09:39.312Z,21.40
2019-02-17T12:12:09.661Z,22.40
2019-02-17T12:14:39.930Z,21.60
2019-02-17T12:17:10.200Z,21.57
2019-02-17T12:19:40.549Z,22.20
2019-02-17T12:22:18.904Z,21.23
2019-02-17T12:24:50.392Z,21.83
2019-02-17T12:27:34.342Z,20.73
2019-02-17T12:30:06.525Z,22.30
2019-02-17T12:32:36.788Z,22.17
2019-02-17T12:35:07.525Z,21.73
2019-02-17T12:37:38.860Z,21.30
2019-02-17T12:40:10.580Z,20.40
2019-02-17T12:42:40.909Z,20.80
2019-02-17T12:45:16.051Z,21.00
2019-02-17T12:47:44.734Z,21.50
2019-02-17T12:50:15.200Z,21.10
2019-02-17T12:52:47.459Z,22.63
2019-02-17T12:55:17.865Z,23.87
2019-02-17T12:57:48.283Z,22.73
2019-02-17T13:00:19.221Z,21.27
2019-02-17T13:02:49.500Z,24.50
2019-02-17T13:05:19.784Z,21.50
2019-02-17T13:07:50.056Z,23.50
2019-02-17T13:10:20.449Z,22.60
2019-02-17T13:12:50.748Z,23.77
2019-02-17T13:15:21.055Z,24.17
2019-02-17T13:17:52.979Z,21.73
2019-02-17T13:20:24.426Z,22.73
2019-02-17T13:22:55.823Z,23.00
2019-02-17T13:25:26.136Z,23.07
2019-02-17T13:27:56.461Z,23.80
2019-02-17T13:30:27.696Z,23.73
2019-02-17T13:32:57.989Z,23.90
2019-02-17T13:35:37.352Z,25.37
2019-02-17T13:38:04.064Z,23.87
2019-02-17T13:40:36.487Z,24.07
2019-02-17T13:43:08.559Z,24.33
2019-02-17T13:45:39.080Z,25.50
2019-02-17T13:48:10.422Z,24.20
2019-02-17T13:50:40.906Z,25.73
2019-02-17T13:53:12.192Z,27.60
2019-02-17T13:55:42.645Z,26.67
2019-02-17T13:58:12.950Z,26.40
2019-02-17T14:00:43.417Z,26.00
2019-02-17T14:03:13.839Z,26.50
2019-02-17T14:05:46.461Z,25.33
2019-02-17T14:08:18.568Z,25.23
2019-02-17T14:10:49.818Z,23.97
2019-02-17T14:13:20.222Z,26.27
2019-02-17T14:15:50.535Z,25.47
2019-02-17T14:18:21.210Z,25.47
2019-02-17T14:20:51.446Z,24.83
2019-02-17T14:23:21.808Z,25.90
2019-02-17T14:25:54.871Z,23.73
2019-02-17T14:28:26.411Z,22.57
2019-02-17T14:30:57.528Z,23.50
2019-02-17T14:33:30.130Z,25.27
2019-02-17T14:36:04.386Z,23.33
2019-02-17T14:38:34.696Z,23.73
2019-02-17T14:41:05.576Z,24.07
2019-02-17T14:43:37.598Z,23.00
2019-02-17T14:46:10.126Z,21.77
2019-02-17T14:48:42.912Z,22.10
2019-02-17T14:51:13.426Z,23.80
2019-02-17T14:53:49.562Z,21.57
2019-02-17T14:56:21.568Z,23.47
2019-02-17T14:58:52.174Z,22.87
2019-02-17T15:01:34.823Z,21.37
2019-02-17T15:12:32.494Z,23.73
2019-02-17T15:15:26.489Z,22.87
2019-02-17T15:17:57.952Z,23.67
2019-02-17T15:20:28.808Z,24.07
2019-02-17T15:22:59.366Z,22.70
2019-02-17T15:26:08.542Z,22.03
2019-02-17T15:29:15.349Z,22.40
2019-02-17T15:31:45.661Z,21.37
2019-02-17T15:34:18.831Z,21.23
2019-02-17T15:36:48.056Z,20.10
2019-02-17T15:39:18.292Z,21.17
2019-02-17T15:41:48.878Z,19.80
2019-02-17T15:44:19.357Z,20.00
2019-02-17T15:46:49.689Z,28.87
2019-02-17T15:49:20.133Z,22.70
2019-02-17T15:51:51.116Z,24.40
2019-02-17T15:54:23.178Z,24.33
2019-02-17T15:56:54.089Z,35.67
2019-02-17T15:59:24.399Z,42.37
2019-02-17T16:01:55.592Z,38.33
2019-02-17T16:12:44.891Z,30.57
2019-02-17T16:15:23.645Z,29.17
2019-02-17T16:17:55.598Z,29.73
2019-02-17T16:20:26.000Z,36.77
2019-02-17T16:22:56.276Z,40.20
2019-02-17T16:25:27.067Z,32.53
2019-02-17T16:27:57.340Z,27.43
2019-02-17T16:30:27.732Z,28.40
2019-02-17T16:32:57.978Z,27.00
2019-02-17T16:35:29.031Z,27.43
2019-02-17T16:38:00.435Z,27.43
2019-02-17T16:40:30.784Z,25.20
2019-02-17T16:43:02.788Z,25.20
2019-02-17T16:45:33.741Z,32.30
2019-02-17T16:48:04.324Z,28.30
2019-02-17T16:51:06.003Z,26.97
2019-02-17T16:53:36.286Z,25.93
2019-02-17T16:56:07.006Z,24.87
2019-02-17T16:58:38.644Z,25.43
2019-02-17T17:01:10.561Z,24.43
2019-02-17T17:03:41.725Z,23.60
2019-02-17T17:06:17.779Z,26.33
2019-02-17T17:08:48.757Z,27.17
2019-02-17T17:11:19.036Z,24.87
2019-02-17T17:13:49.692Z,25.63
2019-02-17T17:16:20.096Z,23.87
2019-02-17T17:18:52.224Z,29.80
2019-02-17T17:21:22.625Z,27.50
2019-02-17T17:23:54.553Z,32.73
2019-02-17T17:26:24.983Z,55.00
2019-02-17T17:28:55.340Z,56.07
2019-02-17T17:31:25.733Z,53.37
2019-02-17T17:33:57.509Z,40.63
2019-02-17T17:36:27.827Z,43.40
2019-02-17T17:43:01.322Z,36.73
2019-02-17T17:45:32.274Z,33.97
2019-02-17T17:48:03.023Z,28.57
2019-02-17T17:50:38.036Z,23.73
2019-02-17T17:53:09.060Z,24.70
2019-02-17T17:55:40.601Z,30.70
2019-02-17T17:58:11.612Z,25.93
2019-02-17T18:00:43.665Z,24.97
2019-02-17T18:03:14.129Z,38.23
2019-02-17T18:05:44.489Z,43.63
2019-02-17T18:08:14.856Z,42.33
2019-02-17T18:10:45.593Z,29.87
2019-02-17T18:13:16.472Z,48.87
2019-02-17T18:15:46.854Z,49.93
2019-02-17T18:18:17.453Z,40.50
2019-02-17T18:20:47.723Z,43.80
2019-02-17T18:23:18.586Z,48.30
2019-02-17T18:25:53.238Z,52.17
2019-02-17T18:28:29.736Z,55.10
2019-02-17T18:31:04.702Z,75.73
2019-02-17T18:33:35.068Z,84.70
2019-02-17T18:36:23.875Z,82.70
2019-02-17T18:39:35.441Z,78.00
2019-02-17T18:42:14.649Z,36.67
2019-02-17T18:49:02.934Z,49.57
2019-02-17T18:51:39.038Z,42.83
2019-02-17T18:54:11.906Z,43.20
2019-02-17T18:56:50.921Z,46.63
2019-02-17T18:59:27.563Z,59.13
2019-02-17T19:02:18.964Z,61.73
2019-02-17T19:04:50.090Z,77.10
2019-02-17T19:07:20.399Z,97.37
2019-02-17T19:09:51.260Z,81.10
2019-02-17T19:12:21.960Z,65.87
2019-02-17T19:14:52.789Z,46.93
2019-02-17T19:17:24.152Z,54.90
2019-02-17T19:19:56.045Z,79.47
2019-02-17T19:22:26.389Z,75.80
2019-02-17T19:24:56.760Z,77.53
2019-02-17T19:27:28.574Z,94.40
2019-02-17T19:30:00.858Z,122.17
2019-02-17T19:32:32.251Z,123.10
2019-02-17T19:35:04.226Z,126.27
2019-02-17T19:41:42.624Z,162.87
2019-02-17T19:48:04.489Z,140.97
2019-02-17T19:51:05.511Z,220.63
2019-02-17T19:53:36.679Z,125.50
2019-02-17T19:57:17.629Z,205.67
2019-02-17T19:59:48.632Z,148.30
2019-02-17T20:02:22.065Z,148.83
2019-02-17T20:04:55.071Z,140.67
2019-02-17T20:07:26.430Z,79.33
2019-02-17T20:09:56.761Z,80.47
2019-02-17T20:12:27.805Z,88.77
2019-02-17T20:14:58.159Z,86.63
2019-02-17T20:17:31.831Z,95.47
2019-02-17T20:20:02.476Z,105.80
2019-02-17T20:22:32.742Z,139.97
2019-02-17T20:25:03.124Z,123.30
2019-02-17T20:27:35.751Z,82.57
2019-02-17T20:40:51.582Z,197.57
2019-02-17T20:43:22.928Z,229.40
2019-02-17T20:45:53.508Z,171.23
2019-02-17T20:48:25.250Z,182.10
2019-02-17T20:50:56.040Z,142.90
2019-02-17T20:53:48.763Z,124.63
2019-02-17T20:56:19.165Z,94.13
2019-02-17T20:58:50.350Z,77.40
2019-02-17T21:01:21.136Z,77.40
2019-02-17T21:03:51.438Z,60.83
2019-02-17T21:06:23.362Z,50.67
2019-02-17T21:08:53.617Z,79.67
2019-02-17T21:11:23.910Z,135.87
2019-02-17T21:13:55.504Z,153.37
2019-02-17T21:16:26.275Z,120.17
2019-02-17T21:18:57.993Z,145.97
2019-02-17T21:21:28.450Z,185.53
2019-02-17T21:23:58.906Z,202.40
2019-02-17T21:26:30.231Z,139.50
2019-02-17T21:29:01.025Z,203.57
2019-02-17T21:31:32.444Z,199.27
2019-02-17T21:38:09.950Z,139.67
2019-02-17T21:40:40.917Z,141.17
2019-02-17T21:43:11.583Z,169.10
2019-02-17T21:45:42.679Z,161.67
2019-02-17T21:48:15.116Z,185.93
2019-02-17T21:50:46.632Z,175.77
2019-02-17T21:53:20.449Z,139.37
2019-02-17T21:55:49.213Z,146.67
2019-02-17T21:58:19.680Z,160.70
2019-02-17T22:00:51.046Z,151.60
2019-02-17T22:03:21.383Z,145.93
2019-02-17T22:05:53.500Z,147.60
2019-02-17T22:08:24.776Z,127.40
2019-02-17T22:10:55.168Z,134.10
2019-02-17T22:13:25.488Z,135.60
2019-02-17T22:15:56.185Z,178.33
2019-02-17T22:18:26.621Z,192.30
2019-02-17T22:20:56.993Z,185.73
2019-02-17T22:23:27.263Z,159.70
2019-02-17T22:25:57.559Z,155.00
2019-02-17T22:28:28.735Z,156.50
2019-02-17T22:30:59.114Z,157.67
2019-02-17T22:33:29.387Z,152.10
2019-02-17T22:35:59.688Z,158.63
2019-02-17T22:38:29.970Z,148.37
2019-02-17T22:41:00.264Z,167.23
2019-02-17T22:43:31.724Z,147.30
2019-02-17T22:46:02.009Z,145.63
2019-02-17T22:48:32.326Z,158.83
2019-02-17T22:51:02.562Z,146.20
2019-02-17T22:53:43.137Z,135.97
2019-02-17T22:56:04.837Z,125.83
2019-02-17T22:58:35.213Z,135.70
2019-02-17T23:01:07.364Z,138.03
2019-02-17T23:03:39.394Z,139.47
2019-02-17T23:06:10.023Z,129.27
2019-02-17T23:08:40.344Z,129.97
2019-02-17T23:11:10.719Z,119.73
2019-02-17T23:13:41.159Z,118.87
2019-02-17T23:16:11.472Z,119.37
2019-02-17T23:18:41.978Z,117.73
2019-02-17T23:21:12.421Z,120.67
2019-02-17T23:23:42.693Z,120.40
2019-02-17T23:26:12.992Z,118.23
2019-02-17T23:28:43.348Z,117.53
2019-02-17T23:31:13.618Z,124.30
2019-02-17T23:33:43.924Z,124.53
2019-02-17T23:36:14.192Z,129.23
2019-02-17T23:38:44.498Z,138.83
2019-02-17T23:41:14.802Z,138.33
2019-02-17T23:43:45.176Z,134.20
2019-02-17T23:46:15.530Z,135.07
2019-02-17T23:48:45.861Z,111.90
2019-02-17T23:51:16.177Z,109.00
2019-02-17T23:53:46.464Z,124.33
2019-02-17T23:56:16.844Z,134.97
2019-02-17T23:58:47.190Z,94.27
